Terminal Aerodrome Forecast
Issued by NWS

Home | Current Version | Previous Version | Text Only | Print | Product List | Glossary On
Versions: 1 2 3 4 5 6 7 8 9 10 11 12
657
FTUS43 KGRB 240525
TAFAUW
TAF
KAUW 240525Z 2406/2506 16007KT P6SM SCT100 BKN250
     FM241000 15005KT P6SM VCSH SCT040 BKN080
      TEMPO 2412/2416 3SM -TSRA BKN035CB
     FM241600 23008G15KT P6SM SCT035 BKN060
     FM250100 34005KT P6SM SCT045 BKN100=

USA.gov is the U.S. government's official web portal to all federal, state and local government web resources and services.